Time;durP1;ratioP1;P1;durP2;ratioP2;P2;SDS_P1;SDS_P2;PMS_P1;PMS_P2;Temp;Humidity;BMP_temperature;BMP_pressure;BME280_temperature;BME280_humidity;BME280_pressure;Samples;Min_cycle;Max_cycle;Signal;HPM_P1;HPM_P2
2024/02/06 00:02:09;;;;;;;9.57;2.50;;;13.80;64.90;;;;;;4625915;30;20365;-92
2024/02/06 00:04:35;;;;;;;8.68;2.97;;;13.80;64.90;;;;;;4630073;30;20915;-91
2024/02/06 00:07:01;;;;;;;9.13;2.03;;;13.80;65.00;;;;;;4630855;30;20058;-89
2024/02/06 00:09:26;;;;;;;9.45;2.10;;;13.80;65.00;;;;;;4612541;30;20039;-91
2024/02/06 00:11:52;;;;;;;7.55;2.72;;;13.80;65.00;;;;;;4612547;30;20043;-91
2024/02/06 00:14:18;;;;;;;6.32;1.80;;;13.80;65.10;;;;;;4614679;30;20067;-91
2024/02/06 00:16:46;;;;;;;7.72;2.25;;;13.80;65.00;;;;;;4627092;30;20078;-94
2024/02/06 00:19:12;;;;;;;7.30;2.03;;;13.80;65.00;;;;;;4631072;30;20562;-90
2024/02/06 00:21:38;;;;;;;4.88;1.90;;;13.80;65.00;;;;;;4629568;30;20079;-90
2024/02/06 00:24:05;;;;;;;8.57;2.30;;;13.80;65.00;;;;;;4628663;30;20059;-92
2024/02/06 00:26:34;;;;;;;6.80;2.75;;;13.80;65.10;;;;;;4630380;30;20043;-93
2024/02/06 00:29:00;;;;;;;5.93;2.28;;;13.80;65.00;;;;;;4614955;30;20051;-93
2024/02/06 00:31:26;;;;;;;6.35;1.88;;;13.80;65.10;;;;;;4622616;30;20078;-93
2024/02/06 00:33:52;;;;;;;8.55;2.15;;;13.80;65.00;;;;;;4651370;30;20042;-92
2024/02/06 00:36:18;;;;;;;6.20;2.72;;;13.80;65.00;;;;;;4647144;30;20034;-91
2024/02/06 00:38:45;;;;;;;9.98;2.08;;;13.80;65.00;;;;;;4634114;30;20089;-94
2024/02/06 00:41:11;;;;;;;8.52;2.20;;;13.80;65.00;;;;;;4632606;30;20370;-93
2024/02/06 00:43:37;;;;;;;7.00;1.77;;;13.80;65.00;;;;;;4644783;30;20053;-92
2024/02/06 00:46:03;;;;;;;6.28;1.80;;;13.80;65.00;;;;;;4635040;30;20523;-94
2024/02/06 00:48:29;;;;;;;5.15;1.60;;;13.80;65.00;;;;;;4627391;30;20035;-90
2024/02/06 00:50:55;;;;;;;10.10;2.10;;;13.80;65.00;;;;;;4642755;30;20054;-91
2024/02/06 00:53:21;;;;;;;6.50;2.72;;;13.70;64.80;;;;;;4644904;30;20061;-88
2024/02/06 00:55:47;;;;;;;7.20;2.83;;;13.80;65.00;;;;;;4613027;30;20043;-90
2024/02/06 00:58:14;;;;;;;7.25;3.03;;;13.70;64.90;;;;;;4640461;30;20126;-90
2024/02/06 01:00:40;;;;;;;9.70;2.80;;;13.80;65.10;;;;;;4628401;30;20070;-92
2024/02/06 01:03:06;;;;;;;7.82;1.98;;;13.80;65.10;;;;;;4650836;30;20225;-90
2024/02/06 01:05:32;;;;;;;10.73;2.92;;;13.80;65.20;;;;;;4646780;30;20037;-95
2024/02/06 01:07:58;;;;;;;7.82;2.30;;;13.80;65.20;;;;;;4643948;30;20053;-93
2024/02/06 01:10:24;;;;;;;13.63;3.65;;;13.70;65.10;;;;;;4646800;30;20064;-91
2024/02/06 01:12:53;;;;;;;9.77;3.75;;;13.70;65.10;;;;;;4644210;30;20065;-90
2024/02/06 01:15:19;;;;;;;11.27;3.17;;;13.80;65.30;;;;;;4644820;30;20047;-91
2024/02/06 01:17:44;;;;;;;8.55;2.60;;;13.70;65.10;;;;;;4630376;30;20146;-93
2024/02/06 01:20:11;;;;;;;7.18;2.33;;;13.70;65.10;;;;;;4627998;30;20066;-91
2024/02/06 01:22:37;;;;;;;12.85;3.97;;;13.70;65.20;;;;;;4646429;30;20523;-94
2024/02/06 01:25:04;;;;;;;6.90;3.15;;;13.70;65.80;;;;;;4631209;30;20070;-92
2024/02/06 01:27:30;;;;;;;7.70;1.88;;;13.70;65.30;;;;;;4643287;30;20098;-91
2024/02/06 01:29:56;;;;;;;6.25;1.90;;;13.70;65.30;;;;;;4629929;30;20046;-93
2024/02/06 01:32:21;;;;;;;10.13;3.83;;;13.70;65.40;;;;;;4631797;30;20074;-92
2024/02/06 01:34:47;;;;;;;8.10;2.20;;;13.70;65.40;;;;;;4647984;30;20069;-94
2024/02/06 01:37:13;;;;;;;6.07;2.17;;;13.70;65.40;;;;;;4649933;30;20046;-92
2024/02/06 01:39:39;;;;;;;7.22;2.70;;;13.70;65.40;;;;;;4633143;30;20034;-90
2024/02/06 01:42:05;;;;;;;10.25;2.25;;;13.70;65.50;;;;;;4643844;30;20054;-88
2024/02/06 01:44:31;;;;;;;8.30;2.22;;;13.70;65.50;;;;;;4628089;30;20106;-91
2024/02/06 01:46:58;;;;;;;6.18;2.35;;;13.70;65.50;;;;;;4625643;30;20792;-92
2024/02/06 01:49:24;;;;;;;5.93;1.60;;;13.70;65.60;;;;;;4641364;30;20061;-90
2024/02/06 01:51:52;;;;;;;4.88;1.95;;;13.60;65.40;;;;;;4640159;30;20039;-87
2024/02/06 01:54:19;;;;;;;5.53;1.60;;;13.60;65.50;;;;;;4636121;30;20039;-89
2024/02/06 01:56:46;;;;;;;5.40;1.40;;;13.60;65.50;;;;;;4629324;30;20053;-88
2024/02/06 01:59:13;;;;;;;7.88;1.67;;;13.60;65.60;;;;;;4640936;30;20431;-87
2024/02/06 02:01:40;;;;;;;4.15;1.50;;;13.60;65.60;;;;;;4637180;30;20098;-87
2024/02/06 02:04:08;;;;;;;8.98;1.98;;;13.60;65.70;;;;;;4636861;30;20480;-86
2024/02/06 02:06:34;;;;;;;6.07;1.65;;;13.60;65.70;;;;;;4621418;30;20154;-86
2024/02/06 02:09:00;;;;;;;5.00;1.67;;;13.60;65.70;;;;;;4621021;30;20448;-85
2024/02/06 02:11:26;;;;;;;5.90;2.15;;;13.60;65.80;;;;;;4622557;30;20673;-86
2024/02/06 02:13:52;;;;;;;4.97;1.25;;;13.60;65.80;;;;;;4637540;30;20442;-86
2024/02/06 02:16:19;;;;;;;7.10;1.80;;;13.60;65.80;;;;;;4625326;30;20046;-88
2024/02/06 02:18:45;;;;;;;9.07;2.88;;;13.60;65.90;;;;;;4622847;30;20886;-86
2024/02/06 02:21:12;;;;;;;9.20;2.05;;;13.60;65.90;;;;;;4630021;30;20055;-86
2024/02/06 02:23:41;;;;;;;7.57;3.42;;;13.60;66.00;;;;;;4639043;30;20090;-85
2024/02/06 02:26:09;;;;;;;7.55;2.13;;;13.60;66.00;;;;;;4620679;30;20103;-85
2024/02/06 02:28:36;;;;;;;7.38;1.85;;;13.60;66.10;;;;;;4621732;30;20030;-85
2024/02/06 02:31:07;;;;;;;7.25;2.10;;;13.60;66.20;;;;;;4637524;30;20046;-84
2024/02/06 02:33:33;;;;;;;6.03;1.80;;;13.60;66.20;;;;;;4623334;30;20038;-86
2024/02/06 02:35:59;;;;;;;10.30;1.90;;;13.50;66.00;;;;;;4623156;30;20039;-88
2024/02/06 02:38:25;;;;;;;7.03;2.53;;;13.50;66.10;;;;;;4619660;30;20069;-87
2024/02/06 02:40:51;;;;;;;8.80;2.47;;;13.60;66.30;;;;;;4625930;30;20063;-88
2024/02/06 02:43:17;;;;;;;7.30;2.58;;;13.50;66.20;;;;;;4635242;30;20477;-89
2024/02/06 02:45:44;;;;;;;7.22;2.65;;;13.50;66.30;;;;;;4639626;30;20039;-86
2024/02/06 02:48:11;;;;;;;9.93;2.33;;;13.50;66.30;;;;;;4628450;30;20127;-84
2024/02/06 02:50:37;;;;;;;7.60;2.40;;;13.50;66.40;;;;;;4635193;30;20077;-87
2024/02/06 02:53:03;;;;;;;9.90;2.72;;;13.50;66.40;;;;;;4626918;30;20063;-89
2024/02/06 02:55:29;;;;;;;11.10;3.28;;;13.50;66.40;;;;;;4621720;30;20043;-89
2024/02/06 02:57:54;;;;;;;11.38;2.83;;;13.50;66.50;;;;;;4642994;30;20050;-88
2024/02/06 03:00:21;;;;;;;9.48;2.70;;;13.50;66.60;;;;;;4630644;30;20035;-89
2024/02/06 03:02:47;;;;;;;10.63;2.53;;;13.40;66.40;;;;;;4643890;30;20051;-88
2024/02/06 03:05:13;;;;;;;12.68;3.28;;;13.40;66.50;;;;;;4635541;30;20037;-89
2024/02/06 03:07:39;;;;;;;11.73;3.95;;;13.40;66.60;;;;;;4636649;30;20511;-88
2024/02/06 03:10:05;;;;;;;11.45;3.03;;;13.40;66.60;;;;;;4641168;30;20039;-89
2024/02/06 03:12:31;;;;;;;11.50;3.60;;;13.40;66.60;;;;;;4613326;30;20503;-89
2024/02/06 03:15:02;;;;;;;6.45;1.88;;;13.40;66.70;;;;;;4627220;30;20047;-89
2024/02/06 03:17:29;;;;;;;6.57;2.15;;;13.40;66.70;;;;;;4640407;30;20042;-89
2024/02/06 03:19:55;;;;;;;7.28;2.50;;;13.40;66.70;;;;;;4628048;30;20097;-88
2024/02/06 03:22:21;;;;;;;10.18;2.70;;;13.40;66.80;;;;;;4629476;30;20477;-89
2024/02/06 03:24:47;;;;;;;10.35;3.03;;;13.40;66.80;;;;;;4641463;30;20126;-88
2024/02/06 03:27:13;;;;;;;9.02;2.40;;;13.40;66.90;;;;;;4622559;30;20046;-88
2024/02/06 03:29:42;;;;;;;9.45;2.92;;;13.40;66.90;;;;;;4643964;30;20043;-87
2024/02/06 03:32:09;;;;;;;8.68;2.67;;;13.40;66.90;;;;;;4640910;30;20051;-87
2024/02/06 03:34:35;;;;;;;10.32;2.55;;;13.40;67.00;;;;;;4650439;30;20134;-86
2024/02/06 03:37:01;;;;;;;8.65;2.80;;;13.40;67.00;;;;;;4645432;30;20113;-88
2024/02/06 03:39:28;;;;;;;11.60;2.15;;;13.30;66.90;;;;;;4630438;30;20121;-88
2024/02/06 03:41:54;;;;;;;6.40;2.00;;;13.40;67.10;;;;;;4636646;30;20295;-90
2024/02/06 03:44:21;;;;;;;8.77;2.58;;;13.40;67.10;;;;;;4647749;30;20468;-89
2024/02/06 03:46:47;;;;;;;7.93;2.53;;;13.30;67.00;;;;;;4629489;30;20046;-90
2024/02/06 03:49:13;;;;;;;8.27;3.42;;;13.30;67.00;;;;;;4646211;30;20106;-90
2024/02/06 03:51:39;;;;;;;6.85;2.28;;;13.30;67.00;;;;;;4649630;30;20084;-89
2024/02/06 03:54:05;;;;;;;11.60;3.78;;;13.30;67.10;;;;;;4653428;30;20069;-89
2024/02/06 03:56:31;;;;;;;8.57;1.95;;;13.30;67.10;;;;;;4642409;30;20047;-88
2024/02/06 03:58:57;;;;;;;8.30;2.58;;;13.30;67.10;;;;;;4653723;30;20042;-88
2024/02/06 04:01:22;;;;;;;11.70;2.50;;;13.30;67.20;;;;;;4653063;30;20137;-89
2024/02/06 04:03:48;;;;;;;9.30;1.88;;;13.30;67.20;;;;;;4636586;30;20035;-86
2024/02/06 04:06:15;;;;;;;6.68;2.40;;;13.30;67.20;;;;;;4642207;30;20051;-87
2024/02/06 04:08:42;;;;;;;6.43;2.20;;;13.30;67.30;;;;;;4629061;30;20038;-87
2024/02/06 04:11:11;;;;;;;7.10;1.98;;;13.30;67.30;;;;;;4631829;30;20107;-88
2024/02/06 04:13:40;;;;;;;9.00;2.58;;;13.30;67.30;;;;;;4615472;30;20306;-88
2024/02/06 04:16:06;;;;;;;9.23;2.10;;;13.30;67.40;;;;;;4629237;30;20121;-92
2024/02/06 04:18:32;;;;;;;10.88;2.20;;;13.30;67.40;;;;;;4628414;30;20035;-92
2024/02/06 04:20:58;;;;;;;6.53;1.83;;;13.30;67.50;;;;;;4626270;31;20051;-91
2024/02/06 04:23:24;;;;;;;6.05;2.70;;;13.30;67.50;;;;;;4630546;30;20082;-89
2024/02/06 04:25:50;;;;;;;6.57;1.88;;;13.30;67.50;;;;;;4645474;30;20222;-91
2024/02/06 04:28:16;;;;;;;4.68;1.70;;;13.30;67.50;;;;;;4638768;30;20058;-90
2024/02/06 04:30:42;;;;;;;5.95;1.98;;;13.30;67.50;;;;;;4663533;30;20063;-91
2024/02/06 04:33:08;;;;;;;7.57;1.70;;;13.30;67.60;;;;;;4661822;30;20050;-93
2024/02/06 04:35:36;;;;;;;6.95;2.13;;;13.30;67.60;;;;;;4647777;30;20102;-92
2024/02/06 04:38:03;;;;;;;8.57;2.53;;;13.30;67.70;;;;;;4662655;30;20210;-91
2024/02/06 04:40:29;;;;;;;6.13;1.73;;;13.20;67.50;;;;;;4671072;30;20050;-91
2024/02/06 04:42:55;;;;;;;9.02;2.50;;;13.20;67.60;;;;;;4661234;30;20062;-90
2024/02/06 04:45:21;;;;;;;9.70;1.77;;;13.20;67.60;;;;;;4637615;30;20057;-92
2024/02/06 04:47:48;;;;;;;9.20;1.98;;;13.20;67.60;;;;;;4627971;30;20054;-94
2024/02/06 04:50:14;;;;;;;8.20;2.95;;;13.20;67.60;;;;;;4629868;30;20036;-92
2024/02/06 04:52:40;;;;;;;7.70;2.22;;;13.20;67.70;;;;;;4647047;30;20041;-92
2024/02/06 04:55:06;;;;;;;5.20;2.22;;;13.20;67.80;;;;;;4651789;30;20447;-93
2024/02/06 04:57:32;;;;;;;5.18;1.80;;;13.20;67.90;;;;;;4646269;30;20386;-91
2024/02/06 04:59:58;;;;;;;6.93;2.63;;;13.20;67.90;;;;;;4646355;30;20118;-89
2024/02/06 05:02:24;;;;;;;5.72;2.08;;;13.20;68.00;;;;;;4630164;30;20055;-89
2024/02/06 05:04:49;;;;;;;8.30;2.10;;;13.10;67.80;;;;;;4627207;30;20505;-88
2024/02/06 05:07:15;;;;;;;5.55;1.70;;;13.20;68.10;;;;;;4632495;30;20054;-86
2024/02/06 05:09:42;;;;;;;4.90;1.70;;;13.20;68.10;;;;;;4628056;30;20046;-87
2024/02/06 05:12:08;;;;;;;9.43;2.50;;;13.20;68.20;;;;;;4643188;30;20145;-84
2024/02/06 05:14:35;;;;;;;4.88;1.60;;;13.10;68.00;;;;;;4642989;30;20035;-90
2024/02/06 05:17:01;;;;;;;5.88;1.73;;;13.10;68.00;;;;;;4644784;30;20059;-87
2024/02/06 05:19:27;;;;;;;4.35;1.73;;;13.10;68.10;;;;;;4649747;30;20500;-88
2024/02/06 05:21:52;;;;;;;4.95;2.03;;;13.10;68.20;;;;;;4644019;30;20062;-88
2024/02/06 05:24:18;;;;;;;4.72;1.95;;;13.10;68.20;;;;;;4640953;30;20060;-88
2024/02/06 05:26:44;;;;;;;9.00;1.90;;;13.10;68.20;;;;;;4643578;30;20047;-87
2024/02/06 05:29:10;;;;;;;6.63;2.08;;;13.10;68.20;;;;;;4629287;30;20071;-88
2024/02/06 05:31:36;;;;;;;7.05;1.77;;;13.10;68.30;;;;;;4634256;30;20150;-90
2024/02/06 05:34:01;;;;;;;8.23;1.90;;;13.10;68.30;;;;;;4641221;30;20038;-89
2024/02/06 05:36:28;;;;;;;4.70;1.70;;;13.10;68.30;;;;;;4620773;30;20113;-88
2024/02/06 05:38:53;;;;;;;5.78;2.40;;;13.10;68.40;;;;;;4642279;30;20053;-88
2024/02/06 05:41:20;;;;;;;7.20;1.60;;;13.10;68.40;;;;;;4640491;30;20051;-87
2024/02/06 05:43:45;;;;;;;8.07;2.15;;;13.00;68.30;;;;;;4640850;30;20039;-88
2024/02/06 05:46:11;;;;;;;6.55;1.60;;;13.00;68.30;;;;;;4643024;30;20503;-87
2024/02/06 05:48:38;;;;;;;7.43;2.47;;;13.00;68.90;;;;;;4623651;30;20035;-88
2024/02/06 05:51:04;;;;;;;6.72;2.38;;;13.00;68.40;;;;;;4638211;30;20047;-87
2024/02/06 05:53:34;;;;;;;5.30;1.42;;;13.00;68.40;;;;;;4641853;30;20112;-88
2024/02/06 05:56:07;;;;;;;4.25;1.40;;;13.00;68.50;;;;;;4639375;30;20050;-89
2024/02/06 05:58:36;;;;;;;6.43;1.27;;;13.00;68.50;;;;;;4646495;30;20039;-90
2024/02/06 06:01:02;;;;;;;5.50;2.22;;;13.00;68.50;;;;;;4627116;30;20571;-92
2024/02/06 06:03:28;;;;;;;6.10;1.30;;;13.00;68.60;;;;;;4624542;30;20180;-88
2024/02/06 06:05:54;;;;;;;3.85;1.67;;;13.00;68.60;;;;;;4638121;30;20046;-89
2024/02/06 06:08:19;;;;;;;5.15;2.38;;;13.00;68.60;;;;;;4623461;30;20061;-88
2024/02/06 06:10:45;;;;;;;5.00;1.20;;;13.00;68.70;;;;;;4625327;30;20043;-88
2024/02/06 06:13:12;;;;;;;4.22;1.27;;;13.00;68.70;;;;;;4638759;30;20443;-88
2024/02/06 06:15:39;;;;;;;5.88;1.20;;;13.00;68.70;;;;;;4639488;30;20031;-90
2024/02/06 06:18:06;;;;;;;3.60;1.48;;;12.90;68.60;;;;;;4639867;30;20157;-91
2024/02/06 06:20:32;;;;;;;4.43;1.73;;;13.00;68.80;;;;;;4623975;30;20267;-89
2024/02/06 06:22:58;;;;;;;3.20;1.30;;;13.00;68.80;;;;;;4640645;30;20061;-93
2024/02/06 06:25:24;;;;;;;4.57;1.13;;;12.90;68.60;;;;;;4636234;30;20337;-85
2024/02/06 06:27:52;;;;;;;5.85;1.35;;;12.90;68.70;;;;;;4629639;30;20050;-90
2024/02/06 06:30:18;;;;;;;6.10;1.27;;;12.90;68.70;;;;;;4647327;30;20031;-94
2024/02/06 06:32:44;;;;;;;7.97;2.38;;;12.90;68.70;;;;;;4627886;30;20094;-92
2024/02/06 06:35:10;;;;;;;4.70;1.10;;;12.90;68.70;;;;;;4640430;30;20043;-93
2024/02/06 06:37:36;;;;;;;5.07;1.35;;;12.90;68.70;;;;;;4642527;30;20155;-93
2024/02/06 06:40:04;;;;;;;5.05;1.42;;;12.90;68.70;;;;;;4632867;30;20087;-93
2024/02/06 06:42:31;;;;;;;2.72;1.33;;;12.90;68.80;;;;;;4626654;30;20061;-90
2024/02/06 06:44:57;;;;;;;4.13;1.48;;;12.90;68.80;;;;;;4617716;30;20315;-89
2024/02/06 06:47:23;;;;;;;10.00;1.98;;;12.80;68.60;;;;;;4643534;30;20039;-92
2024/02/06 06:49:49;;;;;;;9.00;1.50;;;12.80;68.70;;;;;;4640103;30;20045;-90
2024/02/06 06:52:15;;;;;;;5.20;1.08;;;12.90;69.10;;;;;;4639543;30;20027;-85
2024/02/06 06:54:41;;;;;;;8.13;1.88;;;12.90;69.20;;;;;;4619231;30;20039;-95
2024/02/06 06:57:08;;;;;;;8.45;2.05;;;12.90;69.40;;;;;;4645241;30;20075;-93
2024/02/06 06:59:33;;;;;;;8.32;2.20;;;13.00;69.80;;;;;;4627798;30;20129;-94
2024/02/06 07:02:00;;;;;;;8.55;2.80;;;13.10;70.10;;;;;;4644865;30;20078;-92
2024/02/06 07:04:29;;;;;;;6.68;1.90;;;13.10;70.00;;;;;;4643826;30;20033;-93
2024/02/06 07:06:55;;;;;;;9.88;2.42;;;13.20;70.20;;;;;;4632803;30;20137;-94
2024/02/06 07:09:22;;;;;;;17.15;4.65;;;13.20;70.20;;;;;;4639969;30;20158;-81
2024/02/06 07:11:49;;;;;;;29.02;7.55;;;13.20;70.20;;;;;;4639018;30;20463;-87
2024/02/06 07:14:15;;;;;;;32.60;7.57;;;13.10;70.20;;;;;;4607246;30;20042;-87
2024/02/06 07:16:41;;;;;;;24.25;5.55;;;13.20;70.60;;;;;;4635053;30;20045;-87
2024/02/06 07:19:07;;;;;;;28.25;6.22;;;13.20;70.60;;;;;;4612374;30;20509;-85
2024/02/06 07:21:33;;;;;;;30.02;6.20;;;13.20;70.70;;;;;;4607273;30;20121;-85
2024/02/06 07:24:00;;;;;;;26.30;7.18;;;13.20;70.70;;;;;;4631733;30;20102;-86
2024/02/06 07:26:27;;;;;;;21.95;5.03;;;13.20;70.80;;;;;;4619277;30;20042;-82
2024/02/06 07:28:54;;;;;;;19.33;4.95;;;13.20;70.90;;;;;;4636262;30;20044;-83
2024/02/06 07:31:20;;;;;;;22.17;5.72;;;13.10;70.70;;;;;;4635753;30;20165;-83
2024/02/06 07:33:46;;;;;;;22.08;5.25;;;13.10;70.80;;;;;;4630620;30;20050;-83
2024/02/06 07:36:15;;;;;;;21.35;6.38;;;13.10;70.90;;;;;;4614398;30;20058;-85
2024/02/06 07:38:46;;;;;;;24.83;5.60;;;13.20;71.20;;;;;;4622794;30;20122;-83
2024/02/06 07:41:12;;;;;;;27.05;5.78;;;13.20;71.40;;;;;;4634430;30;20051;-85
2024/02/06 07:43:39;;;;;;;24.52;5.63;;;13.20;71.40;;;;;;4616339;30;20409;-84
2024/02/06 07:46:05;;;;;;;19.98;3.80;;;13.20;71.50;;;;;;4638293;30;20122;-83
2024/02/06 07:48:34;;;;;;;19.13;5.18;;;13.30;71.70;;;;;;4630291;30;20545;-86
2024/02/06 07:51:00;;;;;;;17.35;4.28;;;13.20;71.50;;;;;;4628080;30;20189;-83
2024/02/06 07:53:26;;;;;;;20.30;4.93;;;13.30;71.70;;;;;;4632655;30;20051;-84
2024/02/06 07:55:55;;;;;;;15.93;3.85;;;13.30;71.80;;;;;;4632080;30;20049;-83
2024/02/06 07:58:20;;;;;;;13.18;4.68;;;13.30;71.80;;;;;;4634313;30;20051;-86
2024/02/06 08:00:46;;;;;;;13.65;3.55;;;13.40;72.00;;;;;;4632871;30;20456;-82
2024/02/06 08:03:12;;;;;;;16.95;4.15;;;13.30;71.90;;;;;;4619028;30;20287;-84
2024/02/06 08:05:38;;;;;;;17.52;4.05;;;13.40;72.10;;;;;;4619834;30;20067;-83
2024/02/06 08:08:04;;;;;;;17.90;3.47;;;13.40;72.10;;;;;;4621248;30;20137;-84
2024/02/06 08:10:31;;;;;;;12.27;3.55;;;13.40;72.00;;;;;;4640127;30;20069;-83
2024/02/06 08:12:57;;;;;;;12.80;4.25;;;13.40;72.00;;;;;;4620771;30;20598;-82
2024/02/06 08:15:23;;;;;;;20.42;4.68;;;13.50;72.20;;;;;;4620911;30;20104;-82
2024/02/06 08:17:50;;;;;;;14.27;3.95;;;13.50;72.20;;;;;;4638178;30;20564;-81
2024/02/06 08:20:19;;;;;;;11.80;3.15;;;13.50;72.10;;;;;;4635507;30;20043;-82
2024/02/06 08:22:47;;;;;;;12.30;3.28;;;13.50;72.10;;;;;;4640587;30;20122;-82
2024/02/06 08:25:15;;;;;;;12.60;4.32;;;13.50;72.20;;;;;;4622519;30;20063;-82
2024/02/06 08:27:41;;;;;;;14.70;4.50;;;13.50;72.10;;;;;;4646811;30;20504;-83
2024/02/06 08:30:09;;;;;;;15.40;3.63;;;13.60;72.30;;;;;;4646406;30;20496;-85
2024/02/06 08:32:35;;;;;;;17.67;4.40;;;13.60;72.20;;;;;;4636059;30;20570;-84
2024/02/06 08:35:01;;;;;;;18.95;4.13;;;13.60;72.20;;;;;;4623797;30;20122;-84
2024/02/06 08:37:27;;;;;;;21.50;3.60;;;13.60;72.10;;;;;;4636499;30;20396;-83
2024/02/06 08:40:13;;;;;;;14.55;3.63;;;13.70;72.30;;;;;;4626642;30;20038;-83
2024/02/06 08:42:39;;;;;;;15.75;3.47;;;13.70;72.20;;;;;;4624567;30;20053;-83
2024/02/06 08:45:05;;;;;;;12.90;3.13;;;13.70;72.20;;;;;;4637285;30;20050;-86
2024/02/06 08:47:32;;;;;;;20.48;4.20;;;13.80;72.30;;;;;;4638657;30;20038;-84
2024/02/06 08:49:58;;;;;;;14.85;3.55;;;13.80;72.20;;;;;;4634908;30;20074;-81
2024/02/06 08:52:24;;;;;;;15.65;4.53;;;13.90;72.30;;;;;;4635967;30;20290;-83
2024/02/06 08:54:50;;;;;;;15.40;3.95;;;13.90;72.10;;;;;;4621387;30;20057;-83
2024/02/06 08:57:16;;;;;;;14.90;3.97;;;14.00;72.30;;;;;;4624045;30;20104;-83
2024/02/06 08:59:45;;;;;;;25.38;4.32;;;14.00;72.10;;;;;;4618714;30;20047;-84
2024/02/06 09:02:14;;;;;;;15.35;4.30;;;14.10;72.20;;;;;;4620591;30;20477;-82
2024/02/06 09:04:40;;;;;;;18.13;3.75;;;14.10;72.00;;;;;;4618922;30;20056;-83
2024/02/06 09:07:07;;;;;;;17.60;3.60;;;14.10;72.00;;;;;;4639132;30;20145;-81
2024/02/06 09:09:33;;;;;;;20.48;6.90;;;14.20;72.10;;;;;;4621604;30;20137;-82
2024/02/06 09:11:59;;;;;;;15.13;4.28;;;14.20;72.00;;;;;;4638846;30;20042;-82
2024/02/06 09:14:25;;;;;;;18.15;4.22;;;14.20;71.90;;;;;;4637085;30;20397;-85
2024/02/06 09:16:54;;;;;;;17.00;3.88;;;14.20;71.80;;;;;;4633523;30;20251;-84
2024/02/06 09:19:20;;;;;;;15.23;3.30;;;14.30;71.80;;;;;;4635609;30;20039;-84
2024/02/06 09:21:47;;;;;;;17.23;4.20;;;14.30;71.80;;;;;;4636723;30;20722;-84
2024/02/06 09:24:13;;;;;;;15.77;4.57;;;14.30;71.70;;;;;;4634805;30;20547;-87
2024/02/06 09:26:40;;;;;;;12.70;4.93;;;14.40;71.80;;;;;;4635175;30;20453;-84
2024/02/06 09:29:06;;;;;;;17.77;4.63;;;14.40;71.80;;;;;;4632194;30;20045;-82
2024/02/06 09:31:32;;;;;;;15.40;3.83;;;14.40;71.70;;;;;;4631798;30;20073;-83
2024/02/06 09:33:58;;;;;;;18.73;3.65;;;14.40;71.60;;;;;;4636057;30;20066;-80
2024/02/06 09:36:27;;;;;;;17.73;4.72;;;14.40;71.50;;;;;;4633055;30;20086;-82
2024/02/06 09:38:53;;;;;;;14.73;3.88;;;14.40;71.50;;;;;;4619615;30;20058;-83
2024/02/06 09:41:21;;;;;;;11.20;3.35;;;14.40;71.40;;;;;;4634635;30;20434;-85
2024/02/06 09:43:47;;;;;;;18.90;5.43;;;14.50;71.50;;;;;;4636701;30;20049;-85
2024/02/06 09:46:14;;;;;;;17.40;4.38;;;14.50;71.50;;;;;;4635904;30;20066;-86
2024/02/06 09:48:40;;;;;;;12.38;3.83;;;14.60;71.50;;;;;;4620225;30;20444;-86
2024/02/06 09:51:07;;;;;;;18.65;3.90;;;14.60;71.40;;;;;;4602091;30;20042;-84
2024/02/06 09:53:35;;;;;;;15.25;5.10;;;14.70;71.40;;;;;;4622337;30;20473;-85
2024/02/06 09:56:01;;;;;;;15.43;3.60;;;14.70;71.30;;;;;;4640560;30;20218;-86
2024/02/06 09:58:28;;;;;;;11.23;3.67;;;14.80;71.20;;;;;;4623654;30;20061;-84
2024/02/06 10:00:54;;;;;;;13.65;5.50;;;14.90;71.20;;;;;;4638211;30;20441;-83
2024/02/06 10:03:30;;;;;;;12.80;3.53;;;14.90;71.00;;;;;;4623606;30;20567;-85
2024/02/06 10:06:02;;;;;;;13.95;3.88;;;15.00;71.00;;;;;;4645213;30;20145;-86
2024/02/06 10:08:29;;;;;;;15.27;4.43;;;15.00;70.90;;;;;;4636320;30;20468;-86
2024/02/06 10:10:57;;;;;;;13.40;3.50;;;15.10;70.80;;;;;;4643138;30;20039;-84
2024/02/06 10:13:23;;;;;;;13.25;3.67;;;15.10;70.70;;;;;;4632838;30;20067;-81
2024/02/06 10:16:05;;;;;;;14.55;3.75;;;15.20;70.80;;;;;;4663181;30;20087;-84
2024/02/06 10:18:31;;;;;;;15.77;4.07;;;15.20;70.60;;;;;;4645023;30;20049;-83
2024/02/06 10:20:59;;;;;;;13.48;3.55;;;15.30;70.70;;;;;;4661734;30;20057;-83
2024/02/06 10:23:25;;;;;;;9.32;3.35;;;15.30;70.40;;;;;;4660116;30;20043;-83
2024/02/06 10:26:02;;;;;;;12.75;3.70;;;15.40;70.50;;;;;;4655825;30;20123;-86
2024/02/06 10:28:28;;;;;;;12.63;3.42;;;15.40;70.30;;;;;;4655960;30;20065;-86
2024/02/06 10:30:55;;;;;;;13.45;3.22;;;15.40;70.20;;;;;;4635210;30;20121;-84
2024/02/06 10:33:22;;;;;;;15.30;4.22;;;15.50;70.30;;;;;;4622037;30;20398;-84
2024/02/06 10:35:49;;;;;;;17.10;3.78;;;15.50;70.10;;;;;;4626203;30;20077;-82
2024/02/06 10:38:17;;;;;;;11.52;2.47;;;15.60;70.00;;;;;;4617173;30;20046;-83
2024/02/06 10:40:44;;;;;;;8.75;2.13;;;15.70;70.10;;;;;;4643395;30;20045;-80
2024/02/06 10:43:10;;;;;;;13.75;3.92;;;15.80;70.30;;;;;;4648072;30;20055;-82
2024/02/06 10:45:37;;;;;;;7.25;2.05;;;16.00;70.40;;;;;;4622539;30;20054;-79
2024/02/06 10:48:04;;;;;;;8.00;2.33;;;16.20;70.40;;;;;;4630927;30;20073;-78
2024/02/06 10:50:32;;;;;;;10.85;3.17;;;16.30;70.10;;;;;;4643286;30;20477;-82
2024/02/06 10:52:59;;;;;;;10.07;2.78;;;16.50;70.10;;;;;;4624291;30;20049;-81
2024/02/06 10:55:27;;;;;;;9.13;2.28;;;16.70;70.10;;;;;;4625956;30;20047;-81
2024/02/06 10:58:05;;;;;;;11.60;2.72;;;16.80;69.90;;;;;;4622488;30;20039;-81
2024/02/06 11:00:38;;;;;;;13.07;2.90;;;16.80;69.60;;;;;;4637116;30;20047;-79
2024/02/06 11:03:09;;;;;;;10.32;2.72;;;16.90;69.60;;;;;;4632731;30;20060;-81
2024/02/06 11:05:42;;;;;;;13.40;4.25;;;17.00;69.50;;;;;;4623196;30;20042;-80
2024/02/06 11:08:20;;;;;;;10.43;3.03;;;17.00;69.30;;;;;;4636560;30;20046;-81
2024/02/06 11:10:59;;;;;;;11.25;3.67;;;17.10;69.20;;;;;;4643861;30;20226;-81
2024/02/06 11:13:31;;;;;;;7.97;3.78;;;17.20;69.10;;;;;;4633891;30;20803;-81
2024/02/06 11:16:05;;;;;;;5.88;1.90;;;17.30;69.00;;;;;;4624720;30;20617;-83
2024/02/06 11:19:08;;;;;;;7.93;2.88;;;17.30;68.90;;;;;;4613739;30;20063;-82
2024/02/06 11:21:41;;;;;;;8.85;2.65;;;17.30;68.60;;;;;;4617365;30;20079;-83
2024/02/06 11:24:10;;;;;;;9.95;3.05;;;17.30;68.60;;;;;;4634226;30;20027;-83
2024/02/06 11:26:39;;;;;;;11.63;3.72;;;17.30;68.50;;;;;;4618344;30;20039;-82
2024/02/06 11:29:07;;;;;;;11.18;3.25;;;17.40;68.60;;;;;;4635983;30;20039;-84
2024/02/06 11:31:37;;;;;;;12.15;3.45;;;17.30;68.20;;;;;;4634343;30;20225;-85
2024/02/06 11:34:11;;;;;;;7.25;2.38;;;17.40;68.30;;;;;;4620698;30;20361;-84
2024/02/06 11:36:37;;;;;;;12.05;3.40;;;17.40;68.10;;;;;;4634342;30;20679;-83
2024/02/06 11:39:10;;;;;;;13.60;3.58;;;17.40;68.00;;;;;;4638135;30;20039;-82
2024/02/06 11:41:36;;;;;;;10.18;3.42;;;17.50;68.00;;;;;;4606930;30;20442;-81
2024/02/06 11:44:13;;;;;;;8.88;2.88;;;17.50;67.90;;;;;;4653999;30;20031;-81
2024/02/06 11:46:45;;;;;;;11.50;4.28;;;17.50;67.70;;;;;;4654648;30;20062;-82
2024/02/06 11:49:15;;;;;;;11.32;3.00;;;17.50;67.70;;;;;;4636632;30;20046;-83
2024/02/06 11:51:41;;;;;;;9.50;3.42;;;17.50;67.70;;;;;;4616965;30;20126;-84
2024/02/06 11:54:14;;;;;;;12.57;3.20;;;17.50;67.70;;;;;;4620982;30;20039;-84
2024/02/06 11:56:41;;;;;;;10.27;3.85;;;17.50;67.60;;;;;;4633041;30;20239;-83
2024/02/06 11:59:11;;;;;;;6.45;2.20;;;17.60;67.80;;;;;;4624544;30;20042;-84
2024/02/06 12:01:38;;;;;;;9.32;3.17;;;17.50;67.50;;;;;;4631174;30;20142;-83
2024/02/06 12:04:05;;;;;;;8.18;3.05;;;17.50;67.50;;;;;;4650469;30;20063;-79
2024/02/06 12:06:32;;;;;;;12.45;3.90;;;17.50;67.50;;;;;;4641978;30;20137;-82
2024/02/06 12:09:02;;;;;;;9.73;3.47;;;17.50;67.50;;;;;;4640457;30;20082;-81
2024/02/06 12:11:34;;;;;;;12.23;3.38;;;17.40;67.40;;;;;;4622083;30;20121;-81
2024/02/06 12:14:01;;;;;;;10.25;2.80;;;17.40;67.40;;;;;;4639477;30;20043;-83
2024/02/06 12:16:31;;;;;;;8.55;2.65;;;17.50;67.50;;;;;;4646171;30;20050;-81
2024/02/06 12:18:58;;;;;;;9.20;3.17;;;17.50;67.50;;;;;;4626786;30;20050;-81
2024/02/06 12:21:24;;;;;;;11.25;2.97;;;17.50;67.30;;;;;;4642697;30;20102;-80
2024/02/06 12:24:06;;;;;;;10.25;2.88;;;17.50;67.20;;;;;;4624878;30;20108;-81
2024/02/06 12:26:34;;;;;;;7.68;3.28;;;17.50;67.00;;;;;;4626688;30;20129;-81
2024/02/06 12:29:05;;;;;;;9.15;2.35;;;17.60;67.20;;;;;;4617932;30;20066;-81
2024/02/06 12:31:40;;;;;;;13.10;3.60;;;17.60;67.00;;;;;;4620975;30;20295;-81
2024/02/06 12:34:10;;;;;;;15.05;3.15;;;17.60;66.90;;;;;;4634158;30;20112;-82
2024/02/06 12:36:37;;;;;;;10.57;2.72;;;17.60;66.90;;;;;;4625077;30;20047;-81
2024/02/06 12:39:12;;;;;;;8.82;3.67;;;17.70;66.90;;;;;;4636894;30;20201;-80
2024/02/06 12:41:39;;;;;;;11.45;3.10;;;17.70;66.80;;;;;;4621565;30;20139;-80
2024/02/06 12:44:05;;;;;;;10.50;3.47;;;17.80;66.90;;;;;;4610807;30;20070;-81